createdAt,value
2023-04-06T00:02:48.968Z,3.00
2023-04-06T00:06:12.096Z,3.08
2023-04-06T00:09:16.701Z,3.92
2023-04-06T00:12:39.575Z,3.80
2023-04-06T00:15:43.917Z,3.17
2023-04-06T00:18:48.516Z,3.28
2023-04-06T00:21:53.568Z,3.70
2023-04-06T00:25:17.440Z,3.40
2023-04-06T00:28:40.794Z,3.35
2023-04-06T00:32:04.431Z,3.20
2023-04-06T00:35:27.681Z,3.15
2023-04-06T00:38:50.810Z,3.17
2023-04-06T00:42:15.304Z,3.75
2023-04-06T00:45:20.057Z,4.00
2023-04-06T00:48:43.724Z,3.70
2023-04-06T00:51:48.957Z,3.60
2023-04-06T00:54:53.960Z,3.33
2023-04-06T00:58:19.096Z,4.20
2023-04-06T01:01:49.651Z,4.07
2023-04-06T01:05:41.722Z,3.58
2023-04-06T01:08:54.144Z,4.00
2023-04-06T01:12:00.859Z,4.18
2023-04-06T01:15:09.841Z,3.88
2023-04-06T01:18:36.192Z,3.60
2023-04-06T01:22:28.368Z,3.70
2023-04-06T01:25:36.527Z,3.42
2023-04-06T01:29:04.816Z,4.30
2023-04-06T01:32:10.477Z,3.67
2023-04-06T01:35:24.127Z,4.05
2023-04-06T01:38:48.938Z,3.95
2023-04-06T01:41:56.428Z,3.85
2023-04-06T01:45:01.387Z,3.72
2023-04-06T01:48:06.249Z,4.40
2023-04-06T01:51:29.459Z,4.83
2023-04-06T01:54:56.440Z,4.22
2023-04-06T01:58:23.925Z,4.03
2023-04-06T02:01:28.360Z,4.10
2023-04-06T02:04:35.001Z,4.13
2023-04-06T02:08:06.581Z,4.22
2023-04-06T02:11:32.445Z,4.10
2023-04-06T02:14:36.881Z,4.00
2023-04-06T02:17:43.279Z,4.45
2023-04-06T02:24:35.921Z,3.30
2023-04-06T02:27:42.294Z,4.03
2023-04-06T02:31:05.972Z,3.87
2023-04-06T02:34:13.756Z,4.10
2023-04-06T02:37:24.971Z,4.18
2023-04-06T02:40:49.005Z,4.45
2023-04-06T02:44:16.797Z,3.80
2023-04-06T02:47:22.772Z,3.90
2023-04-06T02:50:29.254Z,4.47
2023-04-06T02:53:57.727Z,4.20
2023-04-06T02:57:21.414Z,4.20
2023-04-06T03:00:26.198Z,4.03
2023-04-06T03:03:49.675Z,4.40
2023-04-06T03:07:20.031Z,4.63
2023-04-06T03:10:43.146Z,4.78
2023-04-06T03:14:06.621Z,4.38
2023-04-06T03:17:11.395Z,4.53
2023-04-06T03:20:17.395Z,5.35
2023-04-06T03:23:41.547Z,4.75
2023-04-06T03:26:46.294Z,4.70
2023-04-06T03:30:10.393Z,3.95
2023-04-06T03:33:14.766Z,4.85
2023-04-06T03:36:53.857Z,4.90
2023-04-06T03:40:24.116Z,4.82
2023-04-06T03:43:47.269Z,4.80
2023-04-06T03:47:10.615Z,5.10
2023-04-06T03:50:15.363Z,4.65
2023-04-06T03:53:39.024Z,5.13
2023-04-06T03:56:43.734Z,4.63
2023-04-06T04:00:08.402Z,4.50
2023-04-06T04:03:37.702Z,4.65
2023-04-06T04:06:42.114Z,4.88
2023-04-06T04:10:06.165Z,4.72
2023-04-06T04:13:29.745Z,5.18
2023-04-06T04:16:35.014Z,4.85
2023-04-06T04:19:59.800Z,6.07
2023-04-06T04:23:04.555Z,5.35
2023-04-06T04:26:30.971Z,5.45
2023-04-06T04:29:54.245Z,5.30
2023-04-06T04:32:58.731Z,4.63
2023-04-06T04:36:04.144Z,4.93
2023-04-06T04:39:34.319Z,5.38
2023-04-06T04:42:42.654Z,5.30
2023-04-06T04:46:12.863Z,4.90
2023-04-06T04:49:40.865Z,5.20
2023-04-06T04:53:06.944Z,5.07
2023-04-06T04:56:30.634Z,5.07
2023-04-06T04:59:44.261Z,5.10
2023-04-06T05:03:26.847Z,4.60
2023-04-06T05:07:10.448Z,5.00
2023-04-06T05:10:17.425Z,4.57
2023-04-06T05:13:49.361Z,5.18
2023-04-06T05:16:59.158Z,5.95
2023-04-06T05:20:05.560Z,4.68
2023-04-06T05:23:15.552Z,5.00
2023-04-06T05:26:20.150Z,5.78
2023-04-06T05:29:43.522Z,5.35
2023-04-06T05:32:48.987Z,5.13
2023-04-06T05:36:15.024Z,5.20
2023-04-06T05:39:22.469Z,4.50
2023-04-06T05:42:48.445Z,5.25
2023-04-06T05:46:12.298Z,5.53
2023-04-06T05:49:36.269Z,5.70
2023-04-06T05:52:44.261Z,5.35
2023-04-06T05:56:09.292Z,5.47
2023-04-06T05:59:14.081Z,4.68
2023-04-06T06:02:37.929Z,5.23
2023-04-06T06:05:42.818Z,5.15
2023-04-06T06:08:53.433Z,5.18
2023-04-06T06:12:17.375Z,5.57
2023-04-06T06:15:40.911Z,5.45
2023-04-06T06:19:04.439Z,5.00
2023-04-06T06:22:29.129Z,5.72
2023-04-06T06:25:52.850Z,5.45
2023-04-06T06:29:00.048Z,5.88
2023-04-06T06:32:23.663Z,5.67
2023-04-06T06:35:30.444Z,5.78
2023-04-06T06:38:57.997Z,5.72
2023-04-06T06:42:21.611Z,6.32
2023-04-06T06:45:57.800Z,5.82
2023-04-06T06:49:02.430Z,6.20
2023-04-06T06:52:06.962Z,6.35
2023-04-06T06:55:12.085Z,7.70
2023-04-06T06:58:18.720Z,6.60
2023-04-06T07:01:23.843Z,6.40
2023-04-06T07:04:29.037Z,8.10
2023-04-06T07:07:34.628Z,7.93
2023-04-06T07:10:39.210Z,7.30
2023-04-06T07:13:44.235Z,7.10
2023-04-06T07:16:51.110Z,8.35
2023-04-06T07:19:56.484Z,9.43
2023-04-06T07:23:01.034Z,8.02
2023-04-06T07:26:05.813Z,9.02
2023-04-06T07:29:10.419Z,11.73
2023-04-06T07:32:15.872Z,9.75
2023-04-06T07:35:21.102Z,7.90
2023-04-06T07:38:25.658Z,7.78
2023-04-06T07:41:31.281Z,8.40
2023-04-06T07:44:36.248Z,10.43
2023-04-06T07:47:40.823Z,8.20
2023-04-06T07:50:45.764Z,10.80
2023-04-06T07:53:51.992Z,8.38
2023-04-06T07:56:56.582Z,7.63
2023-04-06T08:00:01.755Z,8.93
2023-04-06T08:03:17.820Z,7.50
2023-04-06T08:06:22.932Z,8.07
2023-04-06T08:09:28.096Z,8.10
2023-04-06T08:12:34.946Z,9.38
2023-04-06T08:15:39.592Z,11.65
2023-04-06T08:18:44.439Z,10.68
2023-04-06T08:21:49.391Z,10.60
2023-04-06T08:24:54.200Z,10.55
2023-04-06T08:27:58.742Z,7.63
2023-04-06T08:31:07.148Z,12.18
2023-04-06T08:34:13.796Z,10.40
2023-04-06T08:37:18.821Z,8.35
2023-04-06T08:40:23.510Z,8.25
2023-04-06T08:43:29.101Z,10.77
2023-04-06T08:46:34.041Z,10.05
2023-04-06T08:49:39.898Z,9.40
2023-04-06T08:52:48.242Z,12.73
2023-04-06T08:55:53.146Z,11.60
2023-04-06T08:58:58.212Z,11.45
2023-04-06T09:02:06.535Z,10.65
2023-04-06T09:05:11.546Z,11.10
2023-04-06T09:08:15.984Z,8.98
2023-04-06T09:11:21.136Z,13.85
2023-04-06T09:14:39.981Z,11.23
2023-04-06T09:17:45.567Z,13.23
2023-04-06T09:21:00.433Z,10.98
2023-04-06T09:24:06.068Z,10.45
2023-04-06T09:27:11.304Z,9.23
2023-04-06T09:30:17.928Z,8.38
2023-04-06T09:33:25.874Z,9.95
2023-04-06T09:36:36.112Z,8.07
2023-04-06T09:39:40.861Z,9.93
2023-04-06T09:42:53.753Z,10.15
2023-04-06T09:46:00.028Z,13.45
2023-04-06T09:49:06.660Z,13.05
2023-04-06T09:52:13.332Z,11.57
2023-04-06T09:55:31.514Z,11.77
2023-04-06T09:58:38.221Z,10.35
2023-04-06T10:01:43.346Z,11.80
2023-04-06T10:05:03.570Z,12.32
2023-04-06T10:08:11.679Z,10.93
2023-04-06T10:11:17.457Z,11.65
2023-04-06T10:14:22.332Z,10.48
2023-04-06T10:17:26.844Z,9.38
2023-04-06T10:20:52.278Z,8.73
2023-04-06T10:24:01.814Z,11.15
2023-04-06T10:27:07.962Z,9.20
2023-04-06T10:30:17.881Z,9.43
2023-04-06T10:33:22.823Z,9.35
2023-04-06T10:36:32.570Z,10.52
2023-04-06T10:39:56.269Z,9.68
2023-04-06T10:43:13.836Z,8.57
2023-04-06T10:46:31.593Z,10.02
2023-04-06T10:49:35.952Z,10.15
2023-04-06T10:52:40.238Z,9.90
2023-04-06T10:55:46.007Z,9.98
2023-04-06T10:58:58.856Z,8.35
2023-04-06T11:02:03.448Z,8.85
2023-04-06T11:05:08.797Z,9.05
2023-04-06T11:08:34.385Z,9.20
2023-04-06T11:11:40.676Z,7.38
2023-04-06T11:15:05.017Z,9.02
2023-04-06T11:18:09.296Z,8.73
2023-04-06T11:21:14.702Z,10.13
2023-04-06T11:24:25.042Z,8.57
2023-04-06T11:27:32.487Z,8.43
2023-04-06T11:30:37.097Z,7.50
2023-04-06T11:33:41.856Z,6.80
2023-04-06T11:36:49.300Z,8.27
2023-04-06T11:39:57.993Z,8.45
2023-04-06T11:43:04.977Z,9.48
2023-04-06T11:46:11.002Z,9.93
2023-04-06T11:49:17.280Z,8.07
2023-04-06T11:52:29.218Z,8.32
2023-04-06T11:55:40.130Z,8.55
2023-04-06T11:58:44.871Z,6.85
2023-04-06T12:01:49.782Z,7.50
2023-04-06T12:04:54.690Z,7.07
2023-04-06T12:08:01.096Z,6.10
2023-04-06T12:11:07.706Z,7.00
2023-04-06T12:14:13.888Z,6.40
2023-04-06T12:17:20.657Z,7.20
2023-04-06T12:20:27.262Z,5.70
2023-04-06T12:23:32.570Z,5.93
2023-04-06T12:26:38.211Z,6.32
2023-04-06T12:29:43.746Z,6.47
2023-04-06T12:32:50.943Z,4.75
2023-04-06T12:35:55.919Z,4.38
2023-04-06T12:39:01.574Z,4.85
2023-04-06T12:42:06.065Z,5.80
2023-04-06T12:45:11.342Z,5.10
2023-04-06T12:48:16.301Z,5.55
2023-04-06T12:51:20.932Z,5.50
2023-04-06T12:54:27.735Z,5.35
2023-04-06T12:57:32.541Z,4.43
2023-04-06T13:00:37.088Z,4.13
2023-04-06T13:03:42.650Z,4.40
2023-04-06T13:06:47.220Z,4.63
2023-04-06T13:09:52.993Z,4.30
2023-04-06T13:12:57.959Z,4.57
2023-04-06T13:16:06.194Z,3.03
2023-04-06T13:19:11.911Z,3.80
2023-04-06T13:22:16.680Z,3.30
2023-04-06T13:25:21.356Z,3.70
2023-04-06T13:28:25.885Z,3.70
2023-04-06T13:31:31.228Z,4.25
2023-04-06T13:34:36.018Z,4.10
2023-04-06T13:37:40.879Z,4.38
2023-04-06T13:40:46.277Z,4.53
2023-04-06T13:43:51.035Z,4.45
2023-04-06T13:46:55.621Z,4.88
2023-04-06T13:50:00.345Z,5.13
2023-04-06T13:53:04.757Z,4.72
2023-04-06T13:56:09.864Z,5.40
2023-04-06T13:59:14.780Z,5.32
2023-04-06T14:02:20.790Z,4.93
2023-04-06T14:05:25.607Z,6.22
2023-04-06T14:08:30.853Z,5.28
2023-04-06T14:11:36.226Z,5.65
2023-04-06T14:14:41.195Z,4.95
2023-04-06T14:17:45.926Z,5.97
2023-04-06T14:20:58.329Z,6.43
2023-04-06T14:24:03.358Z,4.97
2023-04-06T14:27:08.038Z,6.22
2023-04-06T14:30:13.173Z,5.07
2023-04-06T14:33:18.056Z,6.18
2023-04-06T14:36:23.441Z,6.72
2023-04-06T14:39:27.960Z,5.68
2023-04-06T14:42:32.574Z,5.75
2023-04-06T14:45:39.341Z,6.78
2023-04-06T14:48:43.743Z,5.82
2023-04-06T14:51:48.362Z,6.75
2023-04-06T14:54:52.680Z,6.07
2023-04-06T14:57:57.419Z,7.57
2023-04-06T15:01:03.217Z,6.60
2023-04-06T15:04:08.680Z,8.15
2023-04-06T15:07:13.580Z,7.47
2023-04-06T15:10:18.014Z,5.63
2023-04-06T15:13:22.681Z,5.57
2023-04-06T15:16:27.538Z,5.20
2023-04-06T15:19:32.291Z,4.05
2023-04-06T15:22:37.023Z,6.25
2023-04-06T15:25:42.276Z,6.78
2023-04-06T15:28:46.946Z,5.68
2023-04-06T15:31:51.780Z,5.38
2023-04-06T15:35:00.716Z,5.65
2023-04-06T15:38:05.702Z,4.88
2023-04-06T15:41:11.306Z,6.28
2023-04-06T15:44:15.960Z,6.60
2023-04-06T15:47:20.456Z,8.65
2023-04-06T15:50:24.508Z,6.88
2023-04-06T15:53:29.065Z,6.68
2023-04-06T15:56:33.841Z,7.20
2023-04-06T15:59:38.152Z,6.97
2023-04-06T16:02:43.206Z,8.93
2023-04-06T16:05:59.409Z,7.63
2023-04-06T16:09:13.901Z,7.28
2023-04-06T16:12:19.859Z,8.07
2023-04-06T16:15:24.935Z,9.05
2023-04-06T16:18:31.176Z,8.02
2023-04-06T16:21:36.166Z,7.53
2023-04-06T16:24:42.551Z,9.65
2023-04-06T16:27:47.380Z,8.52
2023-04-06T16:30:53.612Z,7.57
2023-04-06T16:34:03.091Z,7.40
2023-04-06T16:37:16.700Z,8.65
2023-04-06T16:40:26.809Z,10.13
2023-04-06T16:43:32.290Z,10.57
2023-04-06T16:46:38.833Z,10.45
2023-04-06T16:49:46.614Z,9.98
2023-04-06T16:52:51.328Z,8.68
2023-04-06T16:55:55.504Z,8.73
2023-04-06T16:59:00.456Z,9.02
2023-04-06T17:02:05.615Z,8.98
2023-04-06T17:05:10.210Z,11.55
2023-04-06T17:08:14.941Z,11.45
2023-04-06T17:11:28.622Z,8.55
2023-04-06T17:14:40.714Z,9.32
2023-04-06T17:17:45.929Z,6.78
2023-04-06T17:21:00.039Z,7.75
2023-04-06T17:24:05.968Z,10.95
2023-04-06T17:27:12.080Z,11.95
2023-04-06T17:30:18.333Z,9.05
2023-04-06T17:33:27.639Z,10.50
2023-04-06T17:36:33.295Z,10.27
2023-04-06T17:39:38.929Z,10.68
2023-04-06T17:42:47.184Z,9.75
2023-04-06T17:45:55.169Z,9.27
2023-04-06T17:49:01.089Z,10.68
2023-04-06T17:52:06.360Z,9.90
2023-04-06T17:55:12.887Z,8.63
2023-04-06T17:58:17.254Z,8.93
2023-04-06T18:01:22.900Z,7.80
2023-04-06T18:04:27.428Z,9.88
2023-04-06T18:07:32.583Z,8.38
2023-04-06T18:10:39.333Z,9.48
2023-04-06T18:13:44.873Z,10.18
2023-04-06T18:16:49.524Z,9.93
2023-04-06T18:19:54.363Z,10.77
2023-04-06T18:22:58.902Z,8.98
2023-04-06T18:26:05.498Z,9.15
2023-04-06T18:29:10.212Z,7.80
2023-04-06T18:32:16.722Z,6.57
2023-04-06T18:35:21.558Z,10.75
2023-04-06T18:38:26.390Z,11.18
2023-04-06T18:41:31.472Z,9.20
2023-04-06T18:44:36.127Z,8.73
2023-04-06T18:47:40.906Z,8.02
2023-04-06T18:51:00.104Z,8.35
2023-04-06T18:54:04.672Z,8.65
2023-04-06T18:57:10.000Z,8.02
2023-04-06T19:00:16.838Z,7.55
2023-04-06T19:03:22.132Z,8.85
2023-04-06T19:06:27.532Z,8.77
2023-04-06T19:09:32.390Z,8.88
2023-04-06T19:12:39.642Z,8.25
2023-04-06T19:15:44.810Z,8.15
2023-04-06T19:18:49.753Z,7.07
2023-04-06T19:21:54.217Z,5.80
2023-04-06T19:24:58.911Z,7.07
2023-04-06T19:28:03.489Z,8.25
2023-04-06T19:31:10.383Z,8.00
2023-04-06T19:34:17.745Z,7.57
2023-04-06T19:37:22.490Z,6.82
2023-04-06T19:40:27.413Z,5.60
2023-04-06T19:43:32.277Z,5.60
2023-04-06T19:46:36.972Z,5.93
2023-04-06T19:49:41.760Z,6.30
2023-04-06T19:52:46.661Z,6.32
2023-04-06T19:55:51.417Z,7.90
2023-04-06T19:58:56.154Z,7.78
2023-04-06T20:02:00.975Z,7.20
2023-04-06T20:05:06.174Z,6.25
2023-04-06T20:08:11.240Z,7.43
2023-04-06T20:11:17.060Z,6.72
2023-04-06T20:14:22.611Z,6.32
2023-04-06T20:17:27.608Z,5.63
2023-04-06T20:20:32.351Z,5.38
2023-04-06T20:23:37.665Z,5.90
2023-04-06T20:26:42.352Z,5.20
2023-04-06T20:29:47.310Z,5.50
2023-04-06T20:32:52.318Z,7.07
2023-04-06T20:36:01.459Z,5.70
2023-04-06T20:39:08.848Z,6.72
2023-04-06T20:42:13.817Z,7.55
2023-04-06T20:45:18.984Z,7.50
2023-04-06T20:48:25.651Z,6.70
2023-04-06T20:51:31.568Z,6.55
2023-04-06T20:54:36.404Z,5.35
2023-04-06T20:57:41.250Z,6.75
2023-04-06T21:00:48.247Z,6.38
2023-04-06T21:03:52.717Z,5.03
2023-04-06T21:06:57.107Z,5.78
2023-04-06T21:10:01.632Z,5.65
2023-04-06T21:13:06.583Z,5.22
2023-04-06T21:16:11.558Z,6.45
2023-04-06T21:19:15.948Z,5.72
2023-04-06T21:22:20.350Z,5.45
2023-04-06T21:25:25.273Z,6.03
2023-04-06T21:28:30.275Z,4.95
2023-04-06T21:31:36.513Z,5.90
2023-04-06T21:34:46.379Z,4.88
2023-04-06T21:37:50.928Z,4.45
2023-04-06T21:40:58.297Z,5.82
2023-04-06T21:44:02.608Z,5.35
2023-04-06T21:47:07.336Z,5.40
2023-04-06T21:50:11.774Z,5.20
2023-04-06T21:53:16.542Z,5.38
2023-04-06T21:56:24.743Z,5.45
2023-04-06T21:59:29.364Z,4.78
2023-04-06T22:02:34.296Z,5.57
2023-04-06T22:05:39.106Z,4.75
2023-04-06T22:08:47.532Z,4.47
2023-04-06T22:11:51.711Z,5.30
2023-04-06T22:14:56.291Z,4.95
2023-04-06T22:18:01.152Z,5.53
2023-04-06T22:21:07.026Z,4.82
2023-04-06T22:24:11.554Z,5.18
2023-04-06T22:27:16.217Z,5.13
2023-04-06T22:30:20.554Z,5.28
2023-04-06T22:33:25.059Z,5.63
2023-04-06T22:36:29.836Z,4.68
2023-04-06T22:39:34.543Z,5.28
2023-04-06T22:42:39.402Z,5.40
2023-04-06T22:45:44.046Z,5.15
2023-04-06T22:48:48.376Z,5.40
2023-04-06T22:51:52.752Z,5.78
2023-04-06T22:54:57.293Z,5.55
2023-04-06T22:58:01.599Z,5.45
2023-04-06T23:01:07.411Z,4.65
2023-04-06T23:04:12.287Z,5.75
2023-04-06T23:07:17.158Z,5.57
2023-04-06T23:10:21.766Z,5.60
2023-04-06T23:13:26.735Z,5.55
2023-04-06T23:16:31.250Z,5.45
2023-04-06T23:19:35.703Z,5.40
2023-04-06T23:22:40.374Z,5.40
2023-04-06T23:25:44.927Z,5.65
2023-04-06T23:28:49.612Z,5.85
2023-04-06T23:31:54.384Z,6.43
2023-04-06T23:34:58.648Z,6.38
2023-04-06T23:38:02.992Z,6.53
2023-04-06T23:41:07.427Z,6.35
2023-04-06T23:44:11.807Z,5.95
2023-04-06T23:47:16.689Z,6.65
2023-04-06T23:50:21.345Z,7.10
2023-04-06T23:53:26.025Z,6.72
2023-04-06T23:56:30.471Z,7.10
2023-04-06T23:59:35.313Z,7.97
